createdAt,value
2022-10-27T04:02:01.033Z,101599.03
2022-10-27T04:07:39.240Z,101612.22
2022-10-27T04:10:43.772Z,101612.22
2022-10-27T04:13:46.857Z,101615.19
2022-10-27T04:16:51.337Z,101614.13
2022-10-27T04:19:53.387Z,101616.00
2022-10-27T04:22:56.717Z,101618.72
2022-10-27T04:25:59.039Z,101623.84
2022-10-27T04:29:01.430Z,101633.25
2022-10-27T04:32:03.522Z,101628.16
2022-10-27T04:35:07.369Z,101634.31
2022-10-27T04:38:09.400Z,101631.91
2022-10-27T04:41:11.683Z,101638.38
2022-10-27T04:44:13.732Z,101638.38
2022-10-27T04:47:16.034Z,101639.72
2022-10-27T04:50:18.609Z,101645.41
2022-10-27T04:53:20.890Z,101646.72
2022-10-27T04:56:22.974Z,101641.59
2022-10-27T04:59:25.315Z,101647.00
2022-10-27T05:02:28.716Z,101642.69
2022-10-27T05:05:31.553Z,101642.94
2022-10-27T05:08:34.574Z,101662.09
2022-10-27T05:11:36.857Z,101663.16
2022-10-27T05:14:38.902Z,101666.94
2022-10-27T05:17:41.260Z,101656.69
2022-10-27T05:20:43.302Z,101665.59
2022-10-27T05:23:47.833Z,101658.31
2022-10-27T05:26:50.024Z,101658.34
2022-10-27T05:29:52.314Z,101668.03
2022-10-27T05:32:54.374Z,101671.00
2022-10-27T05:35:56.721Z,101673.41
2022-10-27T05:38:58.759Z,101675.56
2022-10-27T05:42:01.063Z,101680.97
2022-10-27T05:45:03.362Z,101676.66
2022-10-27T05:48:07.940Z,101681.75
2022-10-27T05:51:10.078Z,101693.88
2022-10-27T05:54:12.430Z,101702.78
2022-10-27T05:57:14.453Z,101700.09
2022-10-27T06:00:18.718Z,101703.59
2022-10-27T06:03:24.483Z,101701.97
2022-10-27T06:06:26.504Z,101695.78
2022-10-27T06:09:28.894Z,101699.81
2022-10-27T06:12:30.919Z,101703.88
2022-10-27T06:15:34.191Z,101721.37
2022-10-27T06:18:36.345Z,101715.72
2022-10-27T06:21:38.625Z,101723.00
2022-10-27T06:24:40.662Z,101729.72
2022-10-27T06:27:43.099Z,101730.00
2022-10-27T06:30:45.215Z,101730.00
2022-10-27T06:33:47.499Z,101727.34
2022-10-27T06:36:49.533Z,101730.00
2022-10-27T06:39:56.575Z,101737.56
2022-10-27T06:43:06.646Z,101736.75
2022-10-27T06:46:10.331Z,101734.31
2022-10-27T06:49:14.244Z,101739.47
2022-10-27T06:52:19.311Z,101740.25
2022-10-27T06:55:21.348Z,101755.37
2022-10-27T06:58:24.601Z,101751.59
2022-10-27T07:01:26.916Z,101752.66
2022-10-27T07:04:29.656Z,101755.09
2022-10-27T07:07:31.798Z,101759.69
2022-10-27T07:10:34.113Z,101763.16
2022-10-27T07:13:36.503Z,101761.03
2022-10-27T07:16:38.801Z,101764.53
2022-10-27T07:19:40.839Z,101775.84
2022-10-27T07:22:43.109Z,101770.44
2022-10-27T07:25:48.684Z,101776.91
2022-10-27T07:28:51.028Z,101783.41
2022-10-27T07:31:53.236Z,101791.22
2022-10-27T07:34:55.619Z,101800.13
2022-10-27T07:37:57.678Z,101793.91
2022-10-27T07:41:00.044Z,101791.19
2022-10-27T07:44:02.409Z,101808.25
2022-10-27T07:47:04.785Z,101806.59
2022-10-27T07:50:08.606Z,101808.25
2022-10-27T07:53:11.548Z,101822.25
2022-10-27T07:56:13.590Z,101821.97
2022-10-27T07:59:16.024Z,101822.25
2022-10-27T08:02:18.119Z,101823.34
2022-10-27T08:05:21.213Z,101828.19
2022-10-27T08:08:23.296Z,101833.31
2022-10-27T08:11:25.620Z,101836.56
2022-10-27T08:14:28.138Z,101848.97
2022-10-27T08:17:32.276Z,101846.53
2022-10-27T08:20:40.015Z,101838.72
2022-10-27T08:23:42.302Z,101848.97
2022-10-27T08:26:44.337Z,101857.31
2022-10-27T08:29:48.838Z,101858.41
2022-10-27T08:32:55.252Z,101852.47
2022-10-27T08:36:01.698Z,101855.72
2022-10-27T08:39:03.798Z,101849.78
2022-10-27T08:42:23.408Z,101851.94
2022-10-27T08:45:30.848Z,101860.31
2022-10-27T08:48:35.751Z,101855.97
2022-10-27T08:51:40.185Z,101861.66
2022-10-27T08:54:49.139Z,101854.34
2022-10-27T08:58:13.330Z,101854.09
2022-10-27T09:01:31.706Z,101853.56
2022-10-27T09:05:16.476Z,101858.16
2022-10-27T09:08:37.369Z,101859.75
2022-10-27T09:11:57.024Z,101857.06
2022-10-27T09:15:27.844Z,101851.41
2022-10-27T09:19:02.733Z,101850.84
2022-10-27T09:22:08.206Z,101858.16
2022-10-27T09:25:17.889Z,101861.41
2022-10-27T09:28:25.094Z,101867.84
2022-10-27T09:31:36.813Z,101861.88
2022-10-27T09:34:52.481Z,101856.78
2022-10-27T09:37:56.513Z,101864.06
2022-10-27T09:40:58.897Z,101855.16
2022-10-27T09:44:03.735Z,101855.69
2022-10-27T09:47:06.047Z,101854.03
2022-10-27T09:50:45.366Z,101865.09
2022-10-27T09:53:52.986Z,101865.34
2022-10-27T09:56:56.596Z,101869.97
2022-10-27T10:00:01.753Z,101860.53
2022-10-27T10:03:21.039Z,101857.88
2022-10-27T10:06:33.557Z,101869.69
2022-10-27T10:09:42.246Z,101864.56
2022-10-27T10:12:45.167Z,101868.34
2022-10-27T10:15:48.370Z,101866.72
2022-10-27T10:19:02.506Z,101870.50
2022-10-27T10:22:04.628Z,101868.06
2022-10-27T10:25:22.778Z,101872.38
2022-10-27T10:28:35.910Z,101861.06
2022-10-27T10:31:38.332Z,101866.69
2022-10-27T10:34:44.869Z,101867.75
2022-10-27T10:37:47.934Z,101862.34
2022-10-27T10:41:13.799Z,101864.53
2022-10-27T10:44:17.291Z,101861.50
2022-10-27T10:47:27.657Z,101863.63
2022-10-27T10:50:31.746Z,101856.34
2022-10-27T10:53:38.591Z,101856.63
2022-10-27T10:56:41.959Z,101855.50
2022-10-27T10:59:44.940Z,101863.06
2022-10-27T11:03:15.804Z,101852.19
2022-10-27T11:06:21.542Z,101857.41
2022-10-27T11:09:31.891Z,101847.34
2022-10-27T11:12:47.308Z,101852.50
2022-10-27T11:15:57.216Z,101853.84
2022-10-27T11:19:02.200Z,101850.56
2022-10-27T11:22:11.307Z,101856.50
2022-10-27T11:25:23.359Z,101850.34
2022-10-27T11:28:59.352Z,101848.50
2022-10-27T11:32:16.764Z,101852.00
2022-10-27T11:35:42.114Z,101842.22
2022-10-27T11:39:02.229Z,101843.34
2022-10-27T11:42:17.778Z,101839.78
2022-10-27T11:45:27.149Z,101843.00
2022-10-27T11:48:40.940Z,101839.75
2022-10-27T11:51:52.660Z,101840.81
2022-10-27T11:54:55.224Z,101836.75
2022-10-27T11:58:11.197Z,101836.44
2022-10-27T12:01:33.728Z,101831.88
2022-10-27T12:04:48.346Z,101833.00
2022-10-27T12:08:01.514Z,101825.31
2022-10-27T12:11:18.214Z,101822.63
2022-10-27T12:14:32.090Z,101820.37
2022-10-27T12:17:53.418Z,101820.69
2022-10-27T12:20:58.906Z,101820.69
2022-10-27T12:24:43.814Z,101820.91
2022-10-27T12:27:49.560Z,101808.22
2022-10-27T12:30:54.489Z,101807.66
2022-10-27T12:34:03.462Z,101805.75
2022-10-27T12:37:15.606Z,101798.66
2022-10-27T12:40:29.305Z,101813.59
2022-10-27T12:43:40.486Z,101800.16
2022-10-27T12:46:56.597Z,101801.53
2022-10-27T12:50:18.144Z,101806.69
2022-10-27T12:53:35.975Z,101800.41
2022-10-27T12:56:44.602Z,101803.41
2022-10-27T12:59:57.544Z,101808.06
2022-10-27T13:03:21.641Z,101795.09
2022-10-27T13:06:42.471Z,101802.31
2022-10-27T13:10:06.754Z,101808.78
2022-10-27T13:13:30.864Z,101804.53
2022-10-27T13:16:51.301Z,101805.81
2022-10-27T13:20:14.014Z,101797.69
2022-10-27T13:23:30.505Z,101805.50
2022-10-27T13:26:54.756Z,101795.78
2022-10-27T13:30:13.530Z,101794.91
2022-10-27T13:33:36.205Z,101791.31
2022-10-27T13:36:38.556Z,101789.91
2022-10-27T13:39:45.020Z,101792.41
2022-10-27T13:42:50.018Z,101793.00
2022-10-27T13:45:54.515Z,101802.72
2022-10-27T13:48:56.813Z,101800.00
2022-10-27T13:52:17.215Z,101804.06
2022-10-27T13:55:28.449Z,101803.84
2022-10-27T13:58:53.929Z,101793.81
2022-10-27T14:02:02.927Z,101812.75
2022-10-27T14:05:21.687Z,101804.94
2022-10-27T14:08:27.321Z,101798.63
2022-10-27T14:11:31.557Z,101804.31
2022-10-27T14:14:35.373Z,101799.37
2022-10-27T14:17:42.554Z,101805.41
2022-10-27T14:20:44.835Z,101804.38
2022-10-27T14:23:47.925Z,101805.75
2022-10-27T14:26:57.690Z,101809.53
2022-10-27T14:30:33.992Z,101816.37
2022-10-27T14:33:36.062Z,101817.97
2022-10-27T14:36:38.653Z,101819.91
2022-10-27T14:39:41.229Z,101812.25
2022-10-27T14:42:45.754Z,101819.34
2022-10-27T14:45:56.673Z,101808.28
2022-10-27T14:49:10.279Z,101803.75
2022-10-27T14:52:50.224Z,101812.41
2022-10-27T14:56:06.929Z,101814.88
2022-10-27T14:59:21.758Z,101815.66
2022-10-27T15:02:25.913Z,101817.53
2022-10-27T15:05:46.198Z,101814.56
2022-10-27T15:08:50.718Z,101820.22
2022-10-27T15:11:52.833Z,101827.28
2022-10-27T15:14:56.439Z,101825.38
2022-10-27T15:18:02.757Z,101829.72
2022-10-27T15:21:11.310Z,101827.03
2022-10-27T15:24:20.137Z,101820.28
2022-10-27T15:27:22.858Z,101815.97
2022-10-27T15:30:24.959Z,101823.03
2022-10-27T15:33:27.285Z,101822.50
2022-10-27T15:36:29.372Z,101814.09
2022-10-27T15:39:31.652Z,101824.66
2022-10-27T15:42:37.047Z,101826.31
2022-10-27T15:45:45.423Z,101816.03
2022-10-27T15:49:14.758Z,101820.37
2022-10-27T15:52:22.489Z,101831.16
